Andover, Iowa
Current Conditions -  °F | °C
As of 9:15 AM on Wednesday 26 Nov 2014 (Local Time) from KSFY Reporting Station
Haze Haze  
Wind Chill: -10°   Ceiling: Unl
Heat Index: -6°   Visibility: 5mi
Dew Point: -7°   Wind: 7mph
Humidity: 89%   Direction: 100°E
Pressure: 30.12"   Gusts: NA
Location:  41.98°N, 90.25°W
Report Text: KSFY 261515Z AUTO 10006KT 5SM BR CLR M06/M07 A3012 RMK AO2 T10561071
Loading
Personal Weather Stations






























Interactive Weather Map New forecast layout! Learn more

10-Day Weather Forecast

Advertisements
Track Severe Weather on mobile